Time;durP1;ratioP1;P1;durP2;ratioP2;P2;SDS_P1;SDS_P2;PMS_P1;PMS_P2;Temp;Humidity;BMP_temperature;BMP_pressure;BME280_temperature;BME280_humidity;BME280_pressure;Samples;Min_cycle;Max_cycle;Signal;HPM_P1;HPM_P2
2021/12/21 00:00:12;;;;;;;10.18;5.93;;;1.80;99.90;;;;;;4938266;29;20086;-85
2021/12/21 00:02:42;;;;;;;10.38;6.82;;;1.80;99.90;;;;;;4937307;28;20487;-84
2021/12/21 00:05:15;;;;;;;8.90;5.32;;;1.80;99.90;;;;;;4953904;28;20038;-85
2021/12/21 00:07:41;;;;;;;10.75;6.00;;;1.80;99.90;;;;;;4937751;29;20033;-81
2021/12/21 00:10:07;;;;;;;7.78;6.00;;;1.80;99.90;;;;;;4937827;29;20019;-85
2021/12/21 00:12:34;;;;;;;8.75;5.47;;;1.80;99.90;;;;;;4937888;29;20058;-84
2021/12/21 00:15:08;;;;;;;8.82;5.70;;;1.70;99.90;;;;;;4937702;28;20023;-83
2021/12/21 00:20:13;;;;;;;10.07;6.30;;;1.70;99.90;;;;;;4954544;28;20059;-85
2021/12/21 00:25:04;;;;;;;9.55;5.97;;;1.70;99.90;;;;;;4954666;29;20114;-84
2021/12/21 00:27:30;;;;;;;11.82;6.82;;;1.70;99.90;;;;;;4937652;29;20034;-84
2021/12/21 00:29:55;;;;;;;10.07;5.78;;;1.70;99.90;;;;;;4937470;28;20071;-82
2021/12/21 00:32:21;;;;;;;8.48;6.45;;;1.70;99.90;;;;;;4936940;29;20035;-83
2021/12/21 00:34:47;;;;;;;11.80;6.55;;;1.60;99.90;;;;;;4937530;29;20024;-86
2021/12/21 00:37:12;;;;;;;9.52;6.43;;;1.70;99.90;;;;;;4936477;29;20039;-84
2021/12/21 00:39:38;;;;;;;9.43;6.57;;;1.60;99.90;;;;;;4936774;29;20031;-87
2021/12/21 00:42:04;;;;;;;8.43;5.45;;;1.60;99.90;;;;;;4955031;28;20126;-84
2021/12/21 00:44:32;;;;;;;11.68;7.03;;;1.60;99.90;;;;;;4938903;29;20031;-83
2021/12/21 00:46:58;;;;;;;10.25;6.95;;;1.60;99.90;;;;;;4939038;29;20026;-85
2021/12/21 00:49:24;;;;;;;8.68;5.88;;;1.60;99.90;;;;;;4956936;29;20027;-86
2021/12/21 00:51:50;;;;;;;10.88;6.65;;;1.50;99.90;;;;;;4953153;28;20031;-84
2021/12/21 00:54:16;;;;;;;9.07;5.90;;;1.50;99.90;;;;;;4937058;29;20027;-85
2021/12/21 00:56:42;;;;;;;11.43;6.43;;;1.50;99.90;;;;;;4954680;29;20078;-85
2021/12/21 00:59:08;;;;;;;8.45;6.07;;;1.50;99.90;;;;;;4953575;28;20031;-85
2021/12/21 01:01:35;;;;;;;9.25;5.78;;;1.50;99.90;;;;;;4952058;28;20062;-86
2021/12/21 01:04:03;;;;;;;9.07;5.53;;;1.50;99.90;;;;;;4955883;28;20472;-85
2021/12/21 01:07:20;;;;;;;8.35;5.70;;;1.50;99.90;;;;;;4967548;28;20487;-88
2021/12/21 01:11:59;;;;;;;8.00;5.30;;;1.50;99.90;;;;;;4954460;28;20468;-87
2021/12/21 01:17:14;;;;;;;8.20;6.30;;;1.40;99.90;;;;;;4954578;29;20098;-86
2021/12/21 01:19:44;;;;;;;9.65;6.00;;;1.50;99.90;;;;;;4937387;28;20035;-83
2021/12/21 01:22:22;;;;;;;10.45;5.90;;;1.40;99.90;;;;;;4955451;28;20133;-84
2021/12/21 01:27:49;;;;;;;9.23;6.38;;;1.40;99.90;;;;;;4971796;28;20043;-86
2021/12/21 01:30:29;;;;;;;;;;;1.40;99.90;;;;;;4952286;28;20476;-87
2021/12/21 01:35:29;;;;;;;9.20;5.60;;;1.40;99.90;;;;;;4948810;28;20495;-86
2021/12/21 01:43:27;;;;;;;9.60;5.72;;;1.30;99.90;;;;;;4938081;29;20047;-85
2021/12/21 01:51:23;;;;;;;10.27;5.90;;;1.20;99.90;;;;;;4934434;29;20068;-84
2021/12/21 01:53:49;;;;;;;6.93;5.55;;;1.20;99.90;;;;;;4933735;29;21268;-84
2021/12/21 01:56:16;;;;;;;8.60;5.88;;;1.20;99.90;;;;;;4932566;29;20036;-85
2021/12/21 01:58:42;;;;;;;8.45;5.50;;;1.20;99.90;;;;;;4932571;29;20019;-85
2021/12/21 02:01:12;;;;;;;7.20;5.47;;;1.20;99.90;;;;;;4932569;29;20059;-84
2021/12/21 02:03:37;;;;;;;10.65;6.53;;;1.20;99.90;;;;;;4931844;29;20155;-84
2021/12/21 02:06:04;;;;;;;7.45;5.45;;;1.20;99.90;;;;;;4932443;29;20571;-85
2021/12/21 02:08:30;;;;;;;9.75;6.07;;;1.20;99.90;;;;;;4931543;29;20032;-85
2021/12/21 02:11:00;;;;;;;10.55;6.40;;;1.20;99.90;;;;;;4932329;29;20049;-85
2021/12/21 02:13:31;;;;;;;7.93;6.00;;;1.10;99.90;;;;;;4932646;29;20032;-85
2021/12/21 02:15:57;;;;;;;7.65;5.90;;;1.10;99.90;;;;;;4931792;29;20027;-85
2021/12/21 02:18:45;;;;;;;7.57;5.78;;;1.10;99.90;;;;;;4932681;29;20420;-85
2021/12/21 02:21:21;;;;;;;9.85;6.15;;;1.10;99.90;;;;;;4932194;29;20032;-85
2021/12/21 02:23:49;;;;;;;9.93;6.43;;;1.10;99.90;;;;;;4931930;29;20057;-85
2021/12/21 02:26:39;;;;;;;10.48;6.63;;;1.10;99.90;;;;;;4932174;29;20020;-84
2021/12/21 02:29:15;;;;;;;10.18;7.30;;;1.10;99.90;;;;;;4932260;29;20489;-85
2021/12/21 02:31:43;;;;;;;9.55;6.07;;;1.10;99.90;;;;;;4931439;29;20405;-85
2021/12/21 02:34:09;;;;;;;8.52;6.40;;;1.10;99.90;;;;;;4932258;29;20027;-87
2021/12/21 02:36:35;;;;;;;9.27;7.38;;;1.10;99.90;;;;;;4933576;29;20024;-86
2021/12/21 02:39:04;;;;;;;10.40;7.45;;;1.00;99.90;;;;;;4931415;29;20034;-86
2021/12/21 02:41:29;;;;;;;10.30;6.35;;;1.00;99.90;;;;;;4931707;29;20028;-84
2021/12/21 02:43:56;;;;;;;11.43;6.90;;;1.00;99.90;;;;;;4931841;29;20509;-83
2021/12/21 02:46:25;;;;;;;11.10;8.05;;;1.00;99.90;;;;;;4931916;29;20028;-83
2021/12/21 02:48:52;;;;;;;12.48;7.10;;;1.00;99.90;;;;;;4932138;29;20465;-85
2021/12/21 02:51:17;;;;;;;12.70;8.23;;;1.00;99.90;;;;;;4931588;29;20050;-84
2021/12/21 02:53:44;;;;;;;13.18;7.88;;;0.90;99.90;;;;;;4932060;29;20501;-84
2021/12/21 02:56:11;;;;;;;14.15;8.43;;;0.90;99.90;;;;;;4932107;29;20031;-82
2021/12/21 02:58:37;;;;;;;11.43;7.30;;;0.90;99.90;;;;;;4931195;29;20044;-82
2021/12/21 03:01:05;;;;;;;13.93;9.05;;;0.90;99.90;;;;;;4932110;29;20023;-83
2021/12/21 03:03:30;;;;;;;9.48;6.75;;;0.90;99.90;;;;;;4932017;29;20050;-83
2021/12/21 03:05:57;;;;;;;9.98;6.00;;;0.90;99.90;;;;;;4931723;29;20114;-84
2021/12/21 03:08:35;;;;;;;8.40;6.20;;;0.90;99.90;;;;;;4933307;29;20453;-86
2021/12/21 03:11:17;;;;;;;9.02;6.40;;;0.80;99.90;;;;;;4933743;29;20020;-88
2021/12/21 03:14:03;;;;;;;;;;;0.80;99.90;;;;;;4933181;29;20027;-86
2021/12/21 03:16:29;;;;;;;7.97;5.93;;;0.80;99.90;;;;;;4933438;29;19954;-85
2021/12/21 03:18:56;;;;;;;7.15;4.85;;;0.80;99.90;;;;;;4931913;29;20020;-87
2021/12/21 03:21:22;;;;;;;8.50;5.50;;;0.80;99.90;;;;;;4932142;29;20123;-87
2021/12/21 03:23:48;;;;;;;7.05;4.95;;;0.80;99.90;;;;;;4932617;29;20118;-87
2021/12/21 03:26:14;;;;;;;6.10;4.70;;;0.80;99.90;;;;;;4931382;29;20114;-87
2021/12/21 03:28:40;;;;;;;7.03;4.88;;;0.80;99.90;;;;;;4931971;29;20035;-86
2021/12/21 03:31:06;;;;;;;8.85;5.63;;;0.70;99.90;;;;;;4949419;28;20048;-88
2021/12/21 03:33:32;;;;;;;7.85;5.38;;;0.70;99.90;;;;;;4934554;29;20020;-86
2021/12/21 03:36:00;;;;;;;6.88;4.88;;;0.70;99.90;;;;;;4935213;29;20106;-86
2021/12/21 03:38:27;;;;;;;6.82;5.13;;;0.70;99.90;;;;;;4934927;29;20543;-85
2021/12/21 03:41:00;;;;;;;6.88;5.53;;;0.70;99.90;;;;;;4934598;29;20055;-88
2021/12/21 03:43:28;;;;;;;7.38;5.00;;;0.70;99.90;;;;;;4934941;29;20038;-84
2021/12/21 03:46:02;;;;;;;7.85;5.47;;;0.70;99.90;;;;;;4935363;29;20031;-85
2021/12/21 03:48:28;;;;;;;8.05;5.30;;;0.70;99.90;;;;;;4934291;29;20039;-87
2021/12/21 03:50:54;;;;;;;6.38;4.80;;;0.70;99.90;;;;;;4936489;29;20020;-88
2021/12/21 03:53:19;;;;;;;7.22;5.43;;;0.70;99.90;;;;;;4956021;28;20031;-88
2021/12/21 03:55:45;;;;;;;7.15;5.60;;;0.70;99.90;;;;;;4937901;29;20035;-88
2021/12/21 03:58:13;;;;;;;7.72;6.05;;;0.60;99.90;;;;;;4938660;29;20054;-87
2021/12/21 04:00:39;;;;;;;6.93;5.18;;;0.60;99.90;;;;;;4938247;29;20015;-85
2021/12/21 04:03:05;;;;;;;5.82;4.80;;;0.60;99.90;;;;;;4937777;29;20028;-87
2021/12/21 04:05:30;;;;;;;7.55;4.97;;;0.60;99.90;;;;;;4938404;29;20027;-89
2021/12/21 04:07:56;;;;;;;9.27;6.25;;;0.60;99.90;;;;;;4938510;29;20047;-86
2021/12/21 04:10:21;;;;;;;8.55;6.10;;;0.60;99.90;;;;;;4954484;28;20032;-89
2021/12/21 04:12:49;;;;;;;8.35;6.65;;;0.60;99.90;;;;;;4938275;29;20031;-86
2021/12/21 04:15:16;;;;;;;7.18;5.97;;;0.50;99.90;;;;;;4937676;29;20019;-84
2021/12/21 04:17:42;;;;;;;9.43;6.55;;;0.50;99.90;;;;;;4938059;29;20376;-84
2021/12/21 04:20:09;;;;;;;11.60;7.60;;;0.50;99.90;;;;;;4937639;29;20109;-84
2021/12/21 04:22:34;;;;;;;8.65;5.75;;;0.50;99.90;;;;;;4954500;28;20042;-85
2021/12/21 04:25:00;;;;;;;9.07;6.88;;;0.50;99.90;;;;;;4937892;28;20036;-84
2021/12/21 04:27:25;;;;;;;6.97;6.28;;;0.50;99.90;;;;;;4954577;29;20034;-85
2021/12/21 04:29:51;;;;;;;9.30;7.03;;;0.50;99.90;;;;;;4933994;29;20131;-88
2021/12/21 04:32:16;;;;;;;9.50;6.53;;;0.50;99.90;;;;;;4934727;29;20118;-88
2021/12/21 04:34:43;;;;;;;10.25;6.60;;;0.50;99.90;;;;;;4934867;29;20019;-86
2021/12/21 04:37:09;;;;;;;10.63;6.70;;;0.50;99.90;;;;;;4935163;29;20086;-89
2021/12/21 04:39:42;;;;;;;9.20;7.25;;;0.50;99.90;;;;;;4934308;29;20028;-86
2021/12/21 04:42:08;;;;;;;9.93;6.63;;;0.50;99.90;;;;;;4935700;29;20047;-85
2021/12/21 04:44:34;;;;;;;8.95;6.68;;;0.40;99.90;;;;;;4934585;29;20032;-86
2021/12/21 04:47:00;;;;;;;11.43;7.57;;;0.40;99.90;;;;;;4934427;29;20039;-89
2021/12/21 04:49:26;;;;;;;9.10;7.00;;;0.40;99.90;;;;;;4934084;29;20027;-84
2021/12/21 04:51:52;;;;;;;9.77;7.30;;;0.40;99.90;;;;;;4933988;29;20032;-84
2021/12/21 04:54:17;;;;;;;10.77;7.07;;;0.40;99.90;;;;;;4934987;29;20107;-88
2021/12/21 04:56:43;;;;;;;8.02;6.68;;;0.40;99.90;;;;;;4935367;29;20042;-89
2021/12/21 04:59:08;;;;;;;10.60;7.10;;;0.40;99.90;;;;;;4933597;29;20031;-85
2021/12/21 05:01:34;;;;;;;10.00;7.35;;;0.40;99.90;;;;;;4934089;29;20051;-85
2021/12/21 05:04:03;;;;;;;9.57;7.70;;;0.40;99.90;;;;;;4933250;29;20495;-85
2021/12/21 05:06:30;;;;;;;7.93;7.10;;;0.40;99.90;;;;;;4934235;29;20501;-87
2021/12/21 05:09:11;;;;;;;11.20;7.40;;;0.40;99.90;;;;;;4933818;29;20034;-84
2021/12/21 05:11:36;;;;;;;9.35;7.00;;;0.40;99.90;;;;;;4933250;29;20055;-83
2021/12/21 05:14:06;;;;;;;8.85;7.57;;;0.30;99.90;;;;;;4933717;29;20078;-85
2021/12/21 05:16:33;;;;;;;10.07;7.18;;;0.30;99.90;;;;;;4933763;29;20032;-84
2021/12/21 05:18:59;;;;;;;8.60;7.70;;;0.30;99.90;;;;;;4934102;29;20023;-84
2021/12/21 05:21:24;;;;;;;12.98;7.13;;;0.30;99.90;;;;;;4933995;29;20039;-83
2021/12/21 05:23:50;;;;;;;10.05;6.90;;;0.30;99.90;;;;;;4934937;29;20203;-84
2021/12/21 05:26:16;;;;;;;7.78;6.70;;;0.30;99.90;;;;;;4932762;29;20226;-88
2021/12/21 05:28:41;;;;;;;10.93;7.28;;;0.30;99.90;;;;;;4933329;29;20028;-89
2021/12/21 05:31:07;;;;;;;8.57;7.28;;;0.20;99.90;;;;;;4928735;29;20051;-86
2021/12/21 05:33:34;;;;;;;8.45;7.32;;;0.30;99.90;;;;;;4927055;29;20031;-87
2021/12/21 05:36:00;;;;;;;9.02;7.10;;;0.30;99.90;;;;;;4944600;28;20035;-86
2021/12/21 05:38:31;;;;;;;8.77;6.70;;;0.20;99.90;;;;;;4951641;29;20027;-85
2021/12/21 05:41:00;;;;;;;9.73;7.15;;;0.20;99.90;;;;;;4948504;28;20027;-88
2021/12/21 05:43:26;;;;;;;10.63;7.28;;;0.20;99.90;;;;;;4932984;29;20039;-83
2021/12/21 05:45:52;;;;;;;10.20;7.35;;;0.20;99.90;;;;;;4934411;29;20028;-84
2021/12/21 05:48:17;;;;;;;9.85;7.03;;;0.20;99.90;;;;;;4932350;29;20091;-83
2021/12/21 05:50:43;;;;;;;7.95;6.32;;;0.20;99.90;;;;;;4932250;29;20027;-84
2021/12/21 05:53:08;;;;;;;10.50;6.70;;;0.20;99.90;;;;;;4932904;29;20032;-83
2021/12/21 05:55:34;;;;;;;8.73;6.55;;;0.20;99.90;;;;;;4929593;29;20067;-83
2021/12/21 05:58:00;;;;;;;9.50;6.80;;;0.10;99.90;;;;;;4932805;29;20399;-84
2021/12/21 06:00:29;;;;;;;9.63;7.20;;;0.10;99.90;;;;;;4931284;29;20543;-82
2021/12/21 06:02:55;;;;;;;9.23;7.00;;;0.10;99.90;;;;;;4931275;29;20032;-84
2021/12/21 06:05:21;;;;;;;9.63;7.18;;;0.10;99.90;;;;;;4932874;29;20028;-82
2021/12/21 06:07:50;;;;;;;8.18;6.75;;;0.10;99.90;;;;;;4947099;29;20028;-86
2021/12/21 06:10:22;;;;;;;9.68;6.75;;;0.10;99.90;;;;;;4933484;29;20491;-84
2021/12/21 06:26:12;;;;;;;10.35;7.45;;;0.00;99.90;;;;;;4934275;29;20087;-87
2021/12/21 06:28:39;;;;;;;9.35;7.15;;;0.00;99.90;;;;;;4932624;29;20024;-84
2021/12/21 06:31:04;;;;;;;10.70;7.90;;;0.00;99.90;;;;;;4931622;29;20047;-81
2021/12/21 06:33:30;;;;;;;10.32;7.28;;;0.00;99.90;;;;;;4932433;29;20400;-81
2021/12/21 06:35:56;;;;;;;9.02;6.70;;;0.00;99.90;;;;;;4933168;29;20399;-82
2021/12/21 06:38:22;;;;;;;10.57;7.90;;;0.00;99.90;;;;;;4932541;29;20503;-85
2021/12/21 06:40:52;;;;;;;8.30;6.88;;;0.00;99.90;;;;;;4932363;29;20020;-84
2021/12/21 06:43:18;;;;;;;7.35;6.45;;;0.00;99.90;;;;;;4931765;29;20056;-84
2021/12/21 06:53:52;;;;;;;8.93;7.30;;;-0.10;99.90;;;;;;4932851;29;20035;-84
2021/12/21 06:56:19;;;;;;;10.25;7.15;;;-0.10;99.90;;;;;;4915557;29;20028;-85
2021/12/21 06:58:45;;;;;;;9.57;7.50;;;-0.10;99.90;;;;;;4928646;29;20401;-85
2021/12/21 07:01:13;;;;;;;7.75;6.93;;;-0.10;99.90;;;;;;4943364;28;20039;-83
2021/12/21 07:03:41;;;;;;;8.52;7.55;;;-0.10;99.90;;;;;;4945846;28;20485;-81
2021/12/21 07:06:07;;;;;;;10.88;7.63;;;-0.10;99.90;;;;;;4944995;28;20087;-81
2021/12/21 07:08:43;;;;;;;9.13;7.45;;;-0.10;99.90;;;;;;4928776;29;20508;-87
2021/12/21 07:11:57;;;;;;;10.00;7.10;;;-0.10;99.90;;;;;;4938250;29;20086;-81
2021/12/21 07:19:32;;;;;;;9.95;7.05;;;-0.10;99.90;;;;;;4933449;29;20047;-81
2021/12/21 07:21:58;;;;;;;10.50;8.18;;;-0.10;99.90;;;;;;4959115;28;20027;-78
2021/12/21 07:24:24;;;;;;;11.07;8.27;;;-0.10;99.90;;;;;;4938811;28;20027;-81
2021/12/21 07:27:40;;;;;;;8.98;7.50;;;-0.20;99.90;;;;;;4952339;28;20118;-88
2021/12/21 07:34:11;;;;;;;9.02;7.43;;;-0.10;99.90;;;;;;4936390;29;20034;-80
2021/12/21 07:36:37;;;;;;;10.00;7.50;;;-0.20;99.90;;;;;;4917093;29;20032;-82
2021/12/21 07:39:28;;;;;;;9.45;7.53;;;-0.20;99.90;;;;;;4918699;29;20197;-84
2021/12/21 07:41:54;;;;;;;10.40;7.60;;;-0.20;99.90;;;;;;4902026;29;20072;-83
2021/12/21 07:44:29;;;;;;;12.07;8.27;;;-0.20;99.90;;;;;;4915400;29;20044;-80
2021/12/21 07:46:55;;;;;;;9.48;8.00;;;-0.20;99.90;;;;;;4917756;29;20020;-77
2021/12/21 07:49:21;;;;;;;9.68;7.38;;;-0.20;99.90;;;;;;4916905;29;20495;-80
2021/12/21 07:51:56;;;;;;;10.65;7.82;;;-0.20;99.90;;;;;;4916474;29;20131;-84
2021/12/21 07:54:22;;;;;;;12.30;7.90;;;-0.20;99.90;;;;;;4912329;29;20578;-80
2021/12/21 07:56:48;;;;;;;13.85;8.10;;;-0.20;99.90;;;;;;4916343;29;20082;-80
2021/12/21 07:59:14;;;;;;;11.73;8.52;;;-0.20;99.90;;;;;;4927754;29;20456;-76
2021/12/21 08:01:40;;;;;;;10.65;7.38;;;-0.20;99.90;;;;;;4941283;29;20055;-77
2021/12/21 08:04:07;;;;;;;12.55;8.73;;;-0.20;99.90;;;;;;4959456;28;20031;-80
2021/12/21 08:06:34;;;;;;;12.93;9.02;;;-0.20;99.90;;;;;;4935156;29;20036;-87
2021/12/21 08:09:02;;;;;;;12.50;8.80;;;-0.20;99.90;;;;;;4950533;28;20115;-86
2021/12/21 08:12:11;;;;;;;12.77;9.15;;;-0.20;99.90;;;;;;4949355;28;20072;-85
2021/12/21 08:14:14;;;;;;;11.50;8.73;;;-0.20;99.90;;;;;;4935244;29;20034;-84
2021/12/21 08:16:40;;;;;;;11.65;8.20;;;-0.10;99.90;;;;;;4950348;28;20126;-85
2021/12/21 08:19:05;;;;;;;14.15;9.13;;;-0.20;99.90;;;;;;4950695;28;20118;-85
2021/12/21 08:21:31;;;;;;;12.43;8.10;;;-0.20;99.90;;;;;;4949713;28;20506;-85
2021/12/21 08:23:57;;;;;;;12.57;7.90;;;-0.10;99.90;;;;;;4950476;28;20507;-85
2021/12/21 08:26:23;;;;;;;11.27;9.18;;;-0.10;99.90;;;;;;4950475;28;20115;-85
2021/12/21 08:28:51;;;;;;;11.90;9.02;;;-0.10;99.90;;;;;;4933693;29;20116;-85
2021/12/21 08:31:17;;;;;;;12.45;9.18;;;-0.10;99.90;;;;;;4950414;28;20058;-86
2021/12/21 08:33:45;;;;;;;11.75;8.65;;;-0.10;99.90;;;;;;4934714;29;20024;-86
2021/12/21 08:36:11;;;;;;;12.25;8.45;;;-0.10;99.90;;;;;;4949940;28;20028;-86
2021/12/21 08:38:40;;;;;;;11.05;8.75;;;-0.10;99.90;;;;;;4933464;29;20115;-87
2021/12/21 08:41:05;;;;;;;12.23;9.32;;;-0.10;99.90;;;;;;4950221;28;20146;-86
2021/12/21 08:43:32;;;;;;;13.57;9.05;;;0.00;99.90;;;;;;4959698;23;20074;-86
2021/12/21 08:45:59;;;;;;;13.65;9.68;;;0.00;99.90;;;;;;4953603;28;20069;-85
2021/12/21 08:48:26;;;;;;;10.50;9.00;;;0.00;99.90;;;;;;4953248;28;20027;-85
2021/12/21 08:50:54;;;;;;;10.38;8.15;;;0.00;99.90;;;;;;4952767;28;20387;-85
2021/12/21 08:53:20;;;;;;;11.20;9.00;;;0.00;99.90;;;;;;4953388;28;20470;-85
2021/12/21 08:55:46;;;;;;;11.98;8.75;;;0.00;99.90;;;;;;4953292;28;20045;-85
2021/12/21 08:58:13;;;;;;;10.60;8.70;;;0.10;99.90;;;;;;4952627;28;20466;-85
2021/12/21 09:00:40;;;;;;;12.65;9.20;;;0.00;99.90;;;;;;4952805;28;20215;-86
2021/12/21 09:03:06;;;;;;;12.02;9.27;;;0.10;99.90;;;;;;4953249;28;20031;-85
2021/12/21 09:05:35;;;;;;;11.57;8.73;;;0.10;99.90;;;;;;4952605;28;20038;-85
2021/12/21 09:08:02;;;;;;;10.95;9.05;;;0.10;99.90;;;;;;4953176;28;20023;-85
2021/12/21 09:10:28;;;;;;;12.20;8.77;;;0.10;99.90;;;;;;4952587;28;20049;-86
2021/12/21 09:12:55;;;;;;;11.60;8.85;;;0.10;99.90;;;;;;4953371;28;20023;-87
2021/12/21 09:15:22;;;;;;;11.15;9.02;;;0.20;99.90;;;;;;4953298;28;20032;-87
2021/12/21 09:17:48;;;;;;;12.52;8.65;;;0.20;99.90;;;;;;4953591;28;20030;-86
2021/12/21 09:20:18;;;;;;;11.40;8.95;;;0.20;99.90;;;;;;4952923;28;20023;-86
2021/12/21 09:22:44;;;;;;;15.60;9.77;;;0.20;99.90;;;;;;4954038;28;20031;-86
2021/12/21 09:25:11;;;;;;;11.70;9.07;;;0.20;99.90;;;;;;4952339;28;20035;-86
2021/12/21 09:27:38;;;;;;;12.27;8.77;;;0.30;99.90;;;;;;4952816;28;20054;-87
2021/12/21 09:30:06;;;;;;;12.23;8.68;;;0.30;99.90;;;;;;4967125;23;20515;-86
2021/12/21 09:32:31;;;;;;;9.82;8.82;;;0.20;99.90;;;;;;4971197;28;20034;-85
2021/12/21 09:34:57;;;;;;;11.07;9.15;;;0.30;99.90;;;;;;4972997;28;20142;-86
2021/12/21 09:37:23;;;;;;;10.32;8.90;;;0.30;99.90;;;;;;4973298;28;20471;-86
2021/12/21 09:39:54;;;;;;;10.52;8.77;;;0.30;99.90;;;;;;4971289;28;20479;-86
2021/12/21 09:42:29;;;;;;;11.93;8.82;;;0.40;99.90;;;;;;4973250;28;20088;-86
2021/12/21 09:44:55;;;;;;;12.02;9.50;;;0.40;99.90;;;;;;4972003;28;20027;-86
2021/12/21 09:47:21;;;;;;;11.20;8.70;;;0.40;99.90;;;;;;4971856;28;20022;-86
2021/12/21 09:49:48;;;;;;;12.52;10.10;;;0.40;99.90;;;;;;4971393;28;20392;-87
2021/12/21 09:52:23;;;;;;;13.77;9.95;;;0.40;99.90;;;;;;4972657;28;20049;-86
2021/12/21 09:54:49;;;;;;;13.23;10.10;;;0.40;99.90;;;;;;4970977;28;20031;-86
2021/12/21 09:57:18;;;;;;;16.00;11.00;;;0.50;99.90;;;;;;4971669;28;20446;-86
2021/12/21 09:59:45;;;;;;;13.32;10.35;;;0.50;99.90;;;;;;4970713;28;20468;-86
2021/12/21 10:02:11;;;;;;;12.88;9.98;;;0.50;99.90;;;;;;4971374;28;20070;-86
2021/12/21 10:04:47;;;;;;;12.10;10.02;;;0.50;99.90;;;;;;4971177;28;20502;-86
2021/12/21 10:07:14;;;;;;;13.80;10.05;;;0.50;99.90;;;;;;4971870;28;20069;-85
2021/12/21 10:09:43;;;;;;;12.98;10.27;;;0.50;99.90;;;;;;4971200;28;20098;-87
2021/12/21 10:12:13;;;;;;;15.07;10.38;;;0.60;99.90;;;;;;4971407;28;20082;-86
2021/12/21 10:14:38;;;;;;;12.40;10.30;;;0.60;99.90;;;;;;4971979;28;20023;-86
2021/12/21 10:17:10;;;;;;;16.77;11.45;;;0.60;99.90;;;;;;4971176;28;20023;-86
2021/12/21 10:19:46;;;;;;;17.60;13.10;;;0.60;99.90;;;;;;4970875;28;20053;-86
2021/12/21 10:22:15;;;;;;;15.35;11.57;;;0.60;99.90;;;;;;4970492;28;20026;-85
2021/12/21 10:24:47;;;;;;;16.60;12.80;;;0.60;99.90;;;;;;4971204;28;20464;-86
2021/12/21 10:27:18;;;;;;;16.20;12.10;;;0.70;99.90;;;;;;4970993;28;20027;-86
2021/12/21 10:29:49;;;;;;;14.75;12.50;;;0.70;99.90;;;;;;4972599;28;20027;-86
2021/12/21 10:32:23;;;;;;;17.23;12.63;;;0.70;99.90;;;;;;4974175;28;20030;-86
2021/12/21 10:34:51;;;;;;;17.92;12.63;;;0.70;99.90;;;;;;4974504;28;20072;-86
2021/12/21 10:37:35;;;;;;;14.85;12.00;;;0.70;99.90;;;;;;4973973;28;20030;-86
2021/12/21 10:40:10;;;;;;;15.43;11.43;;;0.80;99.90;;;;;;4991636;28;20030;-86
2021/12/21 10:42:46;;;;;;;15.00;12.20;;;0.80;99.90;;;;;;4972840;28;20042;-86
2021/12/21 10:45:12;;;;;;;17.25;13.88;;;0.80;99.90;;;;;;4991168;28;20081;-86
2021/12/21 10:47:37;;;;;;;17.30;12.90;;;0.80;99.90;;;;;;4991427;28;20038;-86
2021/12/21 10:50:07;;;;;;;16.80;14.13;;;0.80;99.90;;;;;;4973493;28;20158;-86
2021/12/21 10:52:32;;;;;;;15.88;12.73;;;0.80;99.90;;;;;;4974149;28;20033;-86
2021/12/21 10:54:58;;;;;;;17.50;13.27;;;0.90;99.90;;;;;;4973847;28;20030;-86
2021/12/21 10:57:31;;;;;;;16.45;12.90;;;0.90;99.90;;;;;;4973215;28;20026;-86
2021/12/21 11:00:08;;;;;;;16.75;13.82;;;0.90;99.90;;;;;;4973494;28;20034;-87
2021/12/21 11:02:35;;;;;;;16.67;13.90;;;0.90;99.90;;;;;;4995086;28;20142;-86
2021/12/21 11:05:18;;;;;;;14.07;12.00;;;0.90;99.90;;;;;;4977287;28;20084;-86
2021/12/21 11:10:17;;;;;;;16.80;14.02;;;1.00;99.90;;;;;;4994545;28;20481;-86
2021/12/21 11:12:56;;;;;;;18.02;13.93;;;1.00;99.90;;;;;;4978124;28;20069;-86
2021/12/21 11:15:33;;;;;;;14.63;12.27;;;1.00;99.90;;;;;;4995415;28;20073;-87
2021/12/21 11:18:01;;;;;;;18.45;13.13;;;1.00;99.90;;;;;;4994713;28;20054;-86
2021/12/21 11:20:28;;;;;;;15.52;12.10;;;1.10;99.90;;;;;;4977172;28;20061;-87
2021/12/21 11:22:54;;;;;;;15.57;12.10;;;1.10;99.90;;;;;;4977944;28;20447;-87
2021/12/21 11:25:22;;;;;;;15.68;12.75;;;1.10;99.90;;;;;;4994905;28;20034;-87
2021/12/21 11:27:49;;;;;;;14.20;12.18;;;1.20;99.90;;;;;;4977942;28;20045;-87
2021/12/21 11:30:21;;;;;;;17.90;13.07;;;1.20;99.90;;;;;;4977007;28;20137;-87
2021/12/21 11:32:50;;;;;;;15.73;13.13;;;1.20;99.90;;;;;;4977295;28;20027;-87
2021/12/21 11:37:47;;;;;;;15.00;12.00;;;1.20;99.90;;;;;;4995530;28;20789;-86
2021/12/21 11:40:15;;;;;;;15.55;12.05;;;1.20;99.90;;;;;;4976917;28;20292;-87
2021/12/21 11:42:50;;;;;;;15.13;11.82;;;1.20;99.90;;;;;;4977407;28;20081;-86
2021/12/21 11:45:27;;;;;;;14.75;12.43;;;1.30;99.90;;;;;;4976654;28;20114;-87
2021/12/21 11:48:11;;;;;;;16.27;12.40;;;1.30;99.90;;;;;;4994553;28;20027;-87
2021/12/21 11:50:43;;;;;;;16.63;12.48;;;1.30;99.90;;;;;;4977274;28;20030;-87
2021/12/21 11:53:10;;;;;;;;;;;1.30;99.90;;;;;;4977224;28;20081;-87
2021/12/21 11:55:39;;;;;;;15.70;11.52;;;1.30;99.90;;;;;;4994087;28;19906;-87
2021/12/21 11:58:19;;;;;;;16.05;12.48;;;1.40;99.90;;;;;;4960918;28;20030;-87
2021/12/21 12:01:01;;;;;;;16.50;13.50;;;1.40;99.90;;;;;;4993522;28;20037;-87
2021/12/21 12:03:31;;;;;;;15.48;11.48;;;1.40;99.90;;;;;;4944837;28;20102;-86
2021/12/21 12:06:06;;;;;;;16.50;12.38;;;1.40;99.90;;;;;;4960761;28;20034;-86
2021/12/21 12:09:12;;;;;;;16.05;12.68;;;1.40;99.90;;;;;;4993452;28;20089;-87
2021/12/21 12:12:11;;;;;;;15.68;11.75;;;1.40;99.90;;;;;;4992535;28;20038;-88
2021/12/21 12:14:42;;;;;;;14.57;11.60;;;1.50;99.90;;;;;;4990764;28;20084;-89
2021/12/21 12:17:26;;;;;;;16.98;13.23;;;1.50;99.90;;;;;;4945051;28;20050;-87
2021/12/21 12:20:04;;;;;;;16.10;11.43;;;1.50;99.90;;;;;;4962073;28;20039;-87
2021/12/21 12:22:46;;;;;;;15.63;12.88;;;1.50;99.90;;;;;;4960520;28;20046;-87
2021/12/21 12:25:44;;;;;;;16.77;13.43;;;1.50;99.90;;;;;;4976121;28;20125;-86
2021/12/21 12:28:35;;;;;;;17.50;13.02;;;1.50;99.90;;;;;;4977779;28;20050;-88
2021/12/21 12:31:50;;;;;;;17.33;12.77;;;1.50;99.90;;;;;;4971881;28;20047;-87
2021/12/21 12:34:29;;;;;;;18.65;13.35;;;1.60;99.90;;;;;;4972667;28;20050;-87
2021/12/21 12:37:26;;;;;;;17.48;13.13;;;1.60;99.90;;;;;;4957838;28;20034;-86
2021/12/21 12:39:56;;;;;;;21.75;14.60;;;1.60;99.90;;;;;;4974551;28;20031;-86
2021/12/21 12:42:29;;;;;;;20.25;15.02;;;1.60;99.90;;;;;;4941105;28;20070;-86
2021/12/21 12:45:09;;;;;;;19.73;14.68;;;1.60;99.90;;;;;;4973928;28;20403;-86
2021/12/21 12:48:07;;;;;;;21.33;15.40;;;1.60;99.90;;;;;;4972655;28;20047;-86
2021/12/21 12:50:53;;;;;;;22.20;14.80;;;1.60;99.90;;;;;;4958721;28;20037;-86
2021/12/21 12:53:22;;;;;;;19.20;14.55;;;1.60;99.90;;;;;;4972856;28;20483;-87
2021/12/21 12:55:57;;;;;;;21.65;14.45;;;1.70;99.90;;;;;;4955843;28;20436;-87
2021/12/21 12:59:11;;;;;;;16.25;12.02;;;1.70;99.90;;;;;;4974151;28;20042;-87
2021/12/21 13:02:13;;;;;;;15.50;11.38;;;1.70;99.90;;;;;;4960403;28;20031;-87
2021/12/21 13:05:42;;;;;;;13.50;9.50;;;1.70;99.90;;;;;;4973441;28;20069;-87
2021/12/21 13:08:33;;;;;;;13.10;10.07;;;1.70;99.90;;;;;;4975686;28;20055;-87
2021/12/21 13:11:07;;;;;;;12.07;9.25;;;1.70;99.90;;;;;;4939986;28;20046;-87
2021/12/21 13:14:34;;;;;;;12.40;9.20;;;1.70;99.90;;;;;;4972914;28;20034;-87
2021/12/21 13:18:01;;;;;;;10.88;8.48;;;1.70;99.90;;;;;;4972759;28;20027;-87
2021/12/21 13:21:28;;;;;;;8.43;7.13;;;1.70;99.90;;;;;;4973594;28;20038;-87
2021/12/21 13:24:22;;;;;;;8.07;7.03;;;1.70;99.90;;;;;;4972343;28;20050;-87
2021/12/21 13:27:12;;;;;;;11.73;8.35;;;1.80;99.90;;;;;;4970659;28;20031;-86
2021/12/21 13:29:38;;;;;;;8.38;7.07;;;1.80;99.90;;;;;;4969724;28;20096;-83
2021/12/21 13:32:09;;;;;;;11.18;8.27;;;1.80;99.90;;;;;;4973270;28;20046;-84
2021/12/21 13:34:36;;;;;;;9.25;7.70;;;1.80;99.90;;;;;;4973163;28;20121;-83
2021/12/21 13:37:06;;;;;;;8.35;7.45;;;1.80;99.90;;;;;;4975008;28;20022;-81
2021/12/21 13:39:33;;;;;;;9.52;8.15;;;1.80;99.90;;;;;;4974654;28;20023;-78
2021/12/21 13:42:17;;;;;;;12.07;7.72;;;1.80;99.90;;;;;;4974802;28;20482;-83
2021/12/21 13:45:05;;;;;;;7.93;6.63;;;1.80;99.90;;;;;;4990506;28;20034;-82
2021/12/21 13:47:46;;;;;;;8.98;7.30;;;1.80;99.90;;;;;;4972289;28;20270;-84
2021/12/21 13:50:23;;;;;;;7.80;6.43;;;1.80;99.90;;;;;;4973185;28;20087;-80
2021/12/21 13:52:53;;;;;;;11.88;7.20;;;1.80;99.90;;;;;;4974312;28;20474;-86
2021/12/21 13:55:32;;;;;;;9.00;7.47;;;1.80;99.90;;;;;;4974051;28;20026;-88
2021/12/21 13:58:04;;;;;;;9.90;7.43;;;1.80;99.90;;;;;;4989892;28;20730;-82
2021/12/21 14:00:36;;;;;;;8.85;6.63;;;1.90;99.90;;;;;;4991408;28;20026;-85
2021/12/21 14:03:16;;;;;;;8.73;6.53;;;1.90;99.90;;;;;;4974647;28;20100;-81
2021/12/21 14:05:45;;;;;;;8.57;6.70;;;1.80;99.90;;;;;;4974084;28;20029;-81
2021/12/21 14:08:14;;;;;;;7.70;6.20;;;1.80;99.90;;;;;;4974505;28;20033;-85
2021/12/21 14:10:42;;;;;;;10.00;6.65;;;1.90;99.90;;;;;;4958054;28;20523;-81